Aviation Digital Data Service (ADDS)

Output produced by METARs form (0744 UTC 20 January 2017)
found at http://aviationweather.gov/adds/metars/
 
KGMU 200718Z 2007/2106 14005KT 4SM -SHRA BR OVC015 
     FM201000 19005KT 2SM -SHRA BR OVC007 
     FM201500 22005KT 4SM BR OVC008 
     FM201800 23008KT P6SM BKN035 
     FM210000 22004KT P6SM BKN250